sensor_id;sensor_type;location;lat;lon;timestamp;P1;durP1;ratioP1;P2;durP2;ratioP2
3189;SDS011;1606;51.946;10.558;2023-04-22T00:02:22;12.27;;;8.20;;
3189;SDS011;1606;51.946;10.558;2023-04-22T00:04:50;15.90;;;9.20;;
3189;SDS011;1606;51.946;10.558;2023-04-22T00:07:19;15.40;;;9.33;;
3189;SDS011;1606;51.946;10.558;2023-04-22T00:09:47;14.93;;;9.43;;
3189;SDS011;1606;51.946;10.558;2023-04-22T00:12:15;15.20;;;8.93;;
3189;SDS011;1606;51.946;10.558;2023-04-22T00:14:43;20.23;;;10.17;;
3189;SDS011;1606;51.946;10.558;2023-04-22T00:17:10;16.60;;;10.73;;
3189;SDS011;1606;51.946;10.558;2023-04-22T00:19:38;14.13;;;10.00;;
3189;SDS011;1606;51.946;10.558;2023-04-22T00:22:07;13.40;;;9.07;;
3189;SDS011;1606;51.946;10.558;2023-04-22T00:24:37;17.27;;;10.37;;
3189;SDS011;1606;51.946;10.558;2023-04-22T00:27:05;15.60;;;10.07;;
3189;SDS011;1606;51.946;10.558;2023-04-22T00:29:33;14.67;;;10.13;;
3189;SDS011;1606;51.946;10.558;2023-04-22T00:32:01;19.17;;;11.57;;
3189;SDS011;1606;51.946;10.558;2023-04-22T00:34:29;14.80;;;9.70;;
3189;SDS011;1606;51.946;10.558;2023-04-22T00:36:56;17.40;;;9.60;;
3189;SDS011;1606;51.946;10.558;2023-04-22T00:39:24;16.90;;;10.27;;
3189;SDS011;1606;51.946;10.558;2023-04-22T00:41:53;14.43;;;9.53;;
3189;SDS011;1606;51.946;10.558;2023-04-22T00:44:21;15.63;;;9.20;;
3189;SDS011;1606;51.946;10.558;2023-04-22T00:46:50;13.10;;;9.10;;
3189;SDS011;1606;51.946;10.558;2023-04-22T00:49:19;15.53;;;9.50;;
3189;SDS011;1606;51.946;10.558;2023-04-22T00:51:46;14.33;;;10.07;;
3189;SDS011;1606;51.946;10.558;2023-04-22T00:54:14;15.83;;;10.07;;
3189;SDS011;1606;51.946;10.558;2023-04-22T00:56:42;16.63;;;10.93;;
3189;SDS011;1606;51.946;10.558;2023-04-22T00:59:12;15.57;;;10.53;;
3189;SDS011;1606;51.946;10.558;2023-04-22T01:01:40;18.20;;;10.93;;
3189;SDS011;1606;51.946;10.558;2023-04-22T01:04:08;18.27;;;10.40;;
3189;SDS011;1606;51.946;10.558;2023-04-22T01:06:38;15.27;;;10.63;;
3189;SDS011;1606;51.946;10.558;2023-04-22T01:09:06;15.63;;;10.83;;
3189;SDS011;1606;51.946;10.558;2023-04-22T01:11:34;19.43;;;11.10;;
3189;SDS011;1606;51.946;10.558;2023-04-22T01:14:02;17.97;;;11.00;;
3189;SDS011;1606;51.946;10.558;2023-04-22T01:16:32;18.10;;;11.50;;
3189;SDS011;1606;51.946;10.558;2023-04-22T01:19:01;16.80;;;11.00;;
3189;SDS011;1606;51.946;10.558;2023-04-22T01:21:28;17.83;;;9.80;;
3189;SDS011;1606;51.946;10.558;2023-04-22T01:24:00;18.70;;;11.40;;
3189;SDS011;1606;51.946;10.558;2023-04-22T01:26:27;21.50;;;11.00;;
3189;SDS011;1606;51.946;10.558;2023-04-22T01:28:55;17.73;;;11.50;;
3189;SDS011;1606;51.946;10.558;2023-04-22T01:31:23;15.53;;;10.83;;
3189;SDS011;1606;51.946;10.558;2023-04-22T01:33:51;17.33;;;11.50;;
3189;SDS011;1606;51.946;10.558;2023-04-22T01:36:20;16.17;;;10.50;;
3189;SDS011;1606;51.946;10.558;2023-04-22T01:38:48;16.80;;;11.10;;
3189;SDS011;1606;51.946;10.558;2023-04-22T01:41:17;17.50;;;10.00;;
3189;SDS011;1606;51.946;10.558;2023-04-22T01:43:46;18.92;;;12.43;;
3189;SDS011;1606;51.946;10.558;2023-04-22T01:46:15;14.80;;;9.93;;
3189;SDS011;1606;51.946;10.558;2023-04-22T01:48:43;15.83;;;10.70;;
3189;SDS011;1606;51.946;10.558;2023-04-22T01:51:15;15.50;;;10.13;;
3189;SDS011;1606;51.946;10.558;2023-04-22T01:53:43;14.60;;;10.47;;
3189;SDS011;1606;51.946;10.558;2023-04-22T01:56:11;16.63;;;10.37;;
3189;SDS011;1606;51.946;10.558;2023-04-22T01:58:40;16.53;;;10.00;;
3189;SDS011;1606;51.946;10.558;2023-04-22T02:01:08;14.87;;;9.40;;
3189;SDS011;1606;51.946;10.558;2023-04-22T02:03:37;19.77;;;10.50;;
3189;SDS011;1606;51.946;10.558;2023-04-22T02:06:05;15.70;;;10.37;;
3189;SDS011;1606;51.946;10.558;2023-04-22T02:08:33;17.47;;;11.37;;
3189;SDS011;1606;51.946;10.558;2023-04-22T02:11:00;22.80;;;12.17;;
3189;SDS011;1606;51.946;10.558;2023-04-22T02:13:33;15.73;;;10.30;;
3189;SDS011;1606;51.946;10.558;2023-04-22T02:16:03;18.10;;;11.03;;
3189;SDS011;1606;51.946;10.558;2023-04-22T02:18:31;19.03;;;11.70;;
3189;SDS011;1606;51.946;10.558;2023-04-22T02:20:59;18.33;;;11.30;;
3189;SDS011;1606;51.946;10.558;2023-04-22T02:23:27;18.17;;;11.83;;
3189;SDS011;1606;51.946;10.558;2023-04-22T02:25:55;16.87;;;12.77;;
3189;SDS011;1606;51.946;10.558;2023-04-22T02:28:23;20.07;;;12.30;;
3189;SDS011;1606;51.946;10.558;2023-04-22T02:30:51;16.37;;;11.50;;
3189;SDS011;1606;51.946;10.558;2023-04-22T02:33:20;17.20;;;10.40;;
3189;SDS011;1606;51.946;10.558;2023-04-22T02:35:48;17.47;;;10.97;;
3189;SDS011;1606;51.946;10.558;2023-04-22T02:38:16;21.70;;;11.60;;
3189;SDS011;1606;51.946;10.558;2023-04-22T02:40:43;19.20;;;11.67;;
3189;SDS011;1606;51.946;10.558;2023-04-22T02:43:11;17.63;;;10.80;;
3189;SDS011;1606;51.946;10.558;2023-04-22T02:45:39;24.10;;;11.63;;
3189;SDS011;1606;51.946;10.558;2023-04-22T02:48:07;17.90;;;10.63;;
3189;SDS011;1606;51.946;10.558;2023-04-22T02:50:36;15.37;;;10.30;;
3189;SDS011;1606;51.946;10.558;2023-04-22T02:53:04;21.63;;;13.40;;
3189;SDS011;1606;51.946;10.558;2023-04-22T02:55:31;17.60;;;11.50;;
3189;SDS011;1606;51.946;10.558;2023-04-22T02:57:59;19.00;;;11.20;;
3189;SDS011;1606;51.946;10.558;2023-04-22T03:00:27;16.90;;;10.83;;
3189;SDS011;1606;51.946;10.558;2023-04-22T03:02:55;17.43;;;11.07;;
3189;SDS011;1606;51.946;10.558;2023-04-22T03:05:23;16.90;;;10.77;;
3189;SDS011;1606;51.946;10.558;2023-04-22T03:07:52;14.43;;;10.07;;
3189;SDS011;1606;51.946;10.558;2023-04-22T03:10:20;18.10;;;10.20;;
3189;SDS011;1606;51.946;10.558;2023-04-22T03:12:48;23.43;;;10.83;;
3189;SDS011;1606;51.946;10.558;2023-04-22T03:15:16;15.57;;;10.03;;
3189;SDS011;1606;51.946;10.558;2023-04-22T03:17:46;19.07;;;9.60;;
3189;SDS011;1606;51.946;10.558;2023-04-22T03:20:14;17.97;;;9.17;;
3189;SDS011;1606;51.946;10.558;2023-04-22T03:22:42;16.70;;;9.50;;
3189;SDS011;1606;51.946;10.558;2023-04-22T03:25:12;16.20;;;9.30;;
3189;SDS011;1606;51.946;10.558;2023-04-22T03:27:39;17.50;;;9.40;;
3189;SDS011;1606;51.946;10.558;2023-04-22T03:30:07;17.10;;;9.80;;
3189;SDS011;1606;51.946;10.558;2023-04-22T03:32:35;16.20;;;10.00;;
3189;SDS011;1606;51.946;10.558;2023-04-22T03:35:03;15.50;;;10.10;;
3189;SDS011;1606;51.946;10.558;2023-04-22T03:37:32;15.70;;;9.70;;
3189;SDS011;1606;51.946;10.558;2023-04-22T03:40:00;15.70;;;9.90;;
3189;SDS011;1606;51.946;10.558;2023-04-22T03:42:29;14.70;;;9.33;;
3189;SDS011;1606;51.946;10.558;2023-04-22T03:44:57;15.03;;;9.57;;
3189;SDS011;1606;51.946;10.558;2023-04-22T03:47:25;18.13;;;10.80;;
3189;SDS011;1606;51.946;10.558;2023-04-22T03:49:53;18.33;;;10.60;;
3189;SDS011;1606;51.946;10.558;2023-04-22T03:52:20;13.50;;;9.63;;
3189;SDS011;1606;51.946;10.558;2023-04-22T03:54:48;17.67;;;10.00;;
3189;SDS011;1606;51.946;10.558;2023-04-22T03:57:16;14.63;;;10.30;;
3189;SDS011;1606;51.946;10.558;2023-04-22T03:59:45;15.73;;;10.37;;
3189;SDS011;1606;51.946;10.558;2023-04-22T04:02:12;16.47;;;10.70;;
3189;SDS011;1606;51.946;10.558;2023-04-22T04:04:40;16.10;;;10.18;;
3189;SDS011;1606;51.946;10.558;2023-04-22T04:07:09;16.83;;;10.30;;
3189;SDS011;1606;51.946;10.558;2023-04-22T04:09:39;18.43;;;11.30;;
3189;SDS011;1606;51.946;10.558;2023-04-22T04:12:07;16.60;;;9.70;;
3189;SDS011;1606;51.946;10.558;2023-04-22T04:14:35;13.67;;;9.87;;
3189;SDS011;1606;51.946;10.558;2023-04-22T04:17:04;18.40;;;11.32;;
3189;SDS011;1606;51.946;10.558;2023-04-22T04:19:34;16.93;;;11.00;;
3189;SDS011;1606;51.946;10.558;2023-04-22T04:22:02;15.27;;;10.13;;
3189;SDS011;1606;51.946;10.558;2023-04-22T04:24:30;15.27;;;10.37;;
3189;SDS011;1606;51.946;10.558;2023-04-22T04:26:58;16.63;;;10.00;;
3189;SDS011;1606;51.946;10.558;2023-04-22T04:29:27;16.57;;;10.87;;
3189;SDS011;1606;51.946;10.558;2023-04-22T04:31:54;14.83;;;10.40;;
3189;SDS011;1606;51.946;10.558;2023-04-22T04:34:23;16.40;;;10.87;;
3189;SDS011;1606;51.946;10.558;2023-04-22T04:36:51;16.70;;;10.00;;
3189;SDS011;1606;51.946;10.558;2023-04-22T04:39:19;17.87;;;10.93;;
3189;SDS011;1606;51.946;10.558;2023-04-22T04:41:47;14.70;;;10.30;;
3189;SDS011;1606;51.946;10.558;2023-04-22T04:44:15;17.97;;;10.50;;
3189;SDS011;1606;51.946;10.558;2023-04-22T04:46:43;14.00;;;9.90;;
3189;SDS011;1606;51.946;10.558;2023-04-22T04:49:11;20.53;;;9.70;;
3189;SDS011;1606;51.946;10.558;2023-04-22T04:51:41;20.43;;;11.17;;
3189;SDS011;1606;51.946;10.558;2023-04-22T04:54:08;15.17;;;9.80;;
3189;SDS011;1606;51.946;10.558;2023-04-22T04:56:36;15.20;;;10.43;;
3189;SDS011;1606;51.946;10.558;2023-04-22T04:59:04;20.13;;;10.80;;
3189;SDS011;1606;51.946;10.558;2023-04-22T05:01:32;18.33;;;11.73;;
3189;SDS011;1606;51.946;10.558;2023-04-22T05:03:59;20.50;;;10.33;;
3189;SDS011;1606;51.946;10.558;2023-04-22T05:06:27;17.30;;;10.43;;
3189;SDS011;1606;51.946;10.558;2023-04-22T05:08:57;16.10;;;10.33;;
3189;SDS011;1606;51.946;10.558;2023-04-22T05:11:25;19.63;;;10.50;;
3189;SDS011;1606;51.946;10.558;2023-04-22T05:13:53;20.80;;;9.90;;
3189;SDS011;1606;51.946;10.558;2023-04-22T05:16:21;17.03;;;11.40;;
3189;SDS011;1606;51.946;10.558;2023-04-22T05:18:48;16.20;;;10.37;;
3189;SDS011;1606;51.946;10.558;2023-04-22T05:21:16;16.93;;;10.87;;
3189;SDS011;1606;51.946;10.558;2023-04-22T05:23:45;17.27;;;12.30;;
3189;SDS011;1606;51.946;10.558;2023-04-22T05:26:14;17.67;;;12.43;;
3189;SDS011;1606;51.946;10.558;2023-04-22T05:28:42;17.93;;;11.10;;
3189;SDS011;1606;51.946;10.558;2023-04-22T05:31:10;15.33;;;11.20;;
3189;SDS011;1606;51.946;10.558;2023-04-22T05:33:37;16.40;;;11.67;;
3189;SDS011;1606;51.946;10.558;2023-04-22T05:36:05;17.90;;;10.77;;
3189;SDS011;1606;51.946;10.558;2023-04-22T05:38:33;16.20;;;11.77;;
3189;SDS011;1606;51.946;10.558;2023-04-22T05:41:01;19.20;;;12.87;;
3189;SDS011;1606;51.946;10.558;2023-04-22T05:43:30;18.13;;;12.80;;
3189;SDS011;1606;51.946;10.558;2023-04-22T05:45:58;15.97;;;11.90;;
3189;SDS011;1606;51.946;10.558;2023-04-22T05:48:26;19.77;;;12.57;;
3189;SDS011;1606;51.946;10.558;2023-04-22T05:50:53;18.73;;;12.97;;
3189;SDS011;1606;51.946;10.558;2023-04-22T05:53:21;19.17;;;12.90;;
3189;SDS011;1606;51.946;10.558;2023-04-22T05:55:49;19.53;;;11.73;;
3189;SDS011;1606;51.946;10.558;2023-04-22T05:58:17;17.80;;;12.23;;
3189;SDS011;1606;51.946;10.558;2023-04-22T06:00:46;22.20;;;13.57;;
3189;SDS011;1606;51.946;10.558;2023-04-22T06:03:13;18.10;;;11.30;;
3189;SDS011;1606;51.946;10.558;2023-04-22T06:05:42;18.13;;;12.10;;
3189;SDS011;1606;51.946;10.558;2023-04-22T06:08:10;21.47;;;12.23;;
3189;SDS011;1606;51.946;10.558;2023-04-22T06:10:38;16.53;;;12.30;;
3189;SDS011;1606;51.946;10.558;2023-04-22T06:13:06;17.37;;;12.27;;
3189;SDS011;1606;51.946;10.558;2023-04-22T06:15:34;15.47;;;11.60;;
3189;SDS011;1606;51.946;10.558;2023-04-22T06:18:03;19.00;;;12.13;;
3189;SDS011;1606;51.946;10.558;2023-04-22T06:20:31;15.93;;;11.30;;
3189;SDS011;1606;51.946;10.558;2023-04-22T06:23:01;15.80;;;10.43;;
3189;SDS011;1606;51.946;10.558;2023-04-22T06:25:30;16.40;;;11.13;;
3189;SDS011;1606;51.946;10.558;2023-04-22T06:27:58;18.57;;;11.50;;
3189;SDS011;1606;51.946;10.558;2023-04-22T06:30:26;15.93;;;10.97;;
3189;SDS011;1606;51.946;10.558;2023-04-22T06:32:54;14.13;;;9.97;;
3189;SDS011;1606;51.946;10.558;2023-04-22T06:35:24;15.47;;;10.73;;
3189;SDS011;1606;51.946;10.558;2023-04-22T06:37:52;17.87;;;11.20;;
3189;SDS011;1606;51.946;10.558;2023-04-22T06:40:19;16.20;;;10.53;;
3189;SDS011;1606;51.946;10.558;2023-04-22T06:42:47;15.13;;;10.50;;
3189;SDS011;1606;51.946;10.558;2023-04-22T06:45:15;18.07;;;10.67;;
3189;SDS011;1606;51.946;10.558;2023-04-22T06:47:44;17.50;;;12.10;;
3189;SDS011;1606;51.946;10.558;2023-04-22T06:50:12;24.03;;;10.47;;
3189;SDS011;1606;51.946;10.558;2023-04-22T06:52:42;14.30;;;9.60;;
3189;SDS011;1606;51.946;10.558;2023-04-22T06:55:10;14.47;;;9.60;;
3189;SDS011;1606;51.946;10.558;2023-04-22T06:57:38;14.37;;;8.43;;
3189;SDS011;1606;51.946;10.558;2023-04-22T07:00:06;15.47;;;9.80;;
3189;SDS011;1606;51.946;10.558;2023-04-22T07:02:35;15.27;;;9.90;;
3189;SDS011;1606;51.946;10.558;2023-04-22T07:05:03;14.63;;;9.10;;
3189;SDS011;1606;51.946;10.558;2023-04-22T07:07:31;13.50;;;8.63;;
3189;SDS011;1606;51.946;10.558;2023-04-22T07:10:00;15.80;;;9.20;;
3189;SDS011;1606;51.946;10.558;2023-04-22T07:12:29;17.47;;;8.80;;
3189;SDS011;1606;51.946;10.558;2023-04-22T07:14:57;12.07;;;7.77;;
3189;SDS011;1606;51.946;10.558;2023-04-22T07:17:24;14.80;;;9.20;;
3189;SDS011;1606;51.946;10.558;2023-04-22T07:19:52;14.50;;;7.67;;
3189;SDS011;1606;51.946;10.558;2023-04-22T07:22:20;15.93;;;8.47;;
3189;SDS011;1606;51.946;10.558;2023-04-22T07:24:48;14.47;;;8.30;;
3189;SDS011;1606;51.946;10.558;2023-04-22T07:27:17;13.17;;;7.80;;
3189;SDS011;1606;51.946;10.558;2023-04-22T07:29:45;17.70;;;7.47;;
3189;SDS011;1606;51.946;10.558;2023-04-22T07:32:13;13.27;;;6.80;;
3189;SDS011;1606;51.946;10.558;2023-04-22T07:34:41;13.30;;;7.30;;
3189;SDS011;1606;51.946;10.558;2023-04-22T07:37:08;17.53;;;7.73;;
3189;SDS011;1606;51.946;10.558;2023-04-22T07:39:36;13.27;;;7.53;;
3189;SDS011;1606;51.946;10.558;2023-04-22T07:42:05;12.83;;;7.87;;
3189;SDS011;1606;51.946;10.558;2023-04-22T07:44:34;11.83;;;6.43;;
3189;SDS011;1606;51.946;10.558;2023-04-22T07:47:04;11.10;;;7.00;;
3189;SDS011;1606;51.946;10.558;2023-04-22T07:49:33;12.15;;;6.50;;
3189;SDS011;1606;51.946;10.558;2023-04-22T07:52:01;11.20;;;7.60;;
3189;SDS011;1606;51.946;10.558;2023-04-22T07:54:29;13.07;;;6.90;;
3189;SDS011;1606;51.946;10.558;2023-04-22T07:56:57;11.93;;;7.47;;
3189;SDS011;1606;51.946;10.558;2023-04-22T07:59:24;15.97;;;8.20;;
3189;SDS011;1606;51.946;10.558;2023-04-22T08:01:53;11.40;;;6.23;;
3189;SDS011;1606;51.946;10.558;2023-04-22T08:04:21;15.07;;;6.93;;
3189;SDS011;1606;51.946;10.558;2023-04-22T08:06:49;10.20;;;5.83;;
3189;SDS011;1606;51.946;10.558;2023-04-22T08:09:17;11.13;;;5.70;;
3189;SDS011;1606;51.946;10.558;2023-04-22T08:11:45;9.97;;;5.83;;
3189;SDS011;1606;51.946;10.558;2023-04-22T08:14:13;10.10;;;6.07;;
3189;SDS011;1606;51.946;10.558;2023-04-22T08:16:40;13.67;;;6.60;;
3189;SDS011;1606;51.946;10.558;2023-04-22T08:19:10;12.20;;;7.43;;
3189;SDS011;1606;51.946;10.558;2023-04-22T08:21:37;10.87;;;7.00;;
3189;SDS011;1606;51.946;10.558;2023-04-22T08:24:05;14.10;;;7.53;;
3189;SDS011;1606;51.946;10.558;2023-04-22T08:26:33;12.33;;;7.97;;
3189;SDS011;1606;51.946;10.558;2023-04-22T08:29:02;11.23;;;7.23;;
3189;SDS011;1606;51.946;10.558;2023-04-22T08:31:30;13.30;;;6.97;;
3189;SDS011;1606;51.946;10.558;2023-04-22T08:33:58;12.73;;;7.10;;
3189;SDS011;1606;51.946;10.558;2023-04-22T08:36:27;12.17;;;6.70;;
3189;SDS011;1606;51.946;10.558;2023-04-22T08:38:56;11.30;;;6.60;;
3189;SDS011;1606;51.946;10.558;2023-04-22T08:41:24;10.47;;;6.77;;
3189;SDS011;1606;51.946;10.558;2023-04-22T08:43:52;11.80;;;7.33;;
3189;SDS011;1606;51.946;10.558;2023-04-22T08:46:20;11.47;;;6.67;;
3189;SDS011;1606;51.946;10.558;2023-04-22T08:48:49;9.50;;;6.40;;
3189;SDS011;1606;51.946;10.558;2023-04-22T08:51:17;11.70;;;6.60;;
3189;SDS011;1606;51.946;10.558;2023-04-22T08:53:46;13.30;;;7.67;;
3189;SDS011;1606;51.946;10.558;2023-04-22T08:56:14;12.90;;;6.00;;
3189;SDS011;1606;51.946;10.558;2023-04-22T08:58:42;9.77;;;6.40;;
3189;SDS011;1606;51.946;10.558;2023-04-22T09:01:10;9.20;;;4.80;;
3189;SDS011;1606;51.946;10.558;2023-04-22T09:03:39;8.77;;;4.73;;
3189;SDS011;1606;51.946;10.558;2023-04-22T09:06:09;8.67;;;4.03;;
3189;SDS011;1606;51.946;10.558;2023-04-22T09:08:37;7.00;;;3.17;;
3189;SDS011;1606;51.946;10.558;2023-04-22T09:11:06;8.03;;;3.43;;
3189;SDS011;1606;51.946;10.558;2023-04-22T09:13:34;7.20;;;3.63;;
3189;SDS011;1606;51.946;10.558;2023-04-22T09:16:03;8.10;;;3.57;;
3189;SDS011;1606;51.946;10.558;2023-04-22T09:18:37;8.13;;;4.03;;
3189;SDS011;1606;51.946;10.558;2023-04-22T09:21:06;8.07;;;3.50;;
3189;SDS011;1606;51.946;10.558;2023-04-22T09:23:42;6.63;;;3.17;;
3189;SDS011;1606;51.946;10.558;2023-04-22T09:26:13;9.10;;;3.60;;
3189;SDS011;1606;51.946;10.558;2023-04-22T09:28:49;9.10;;;3.50;;
3189;SDS011;1606;51.946;10.558;2023-04-22T09:31:17;8.67;;;3.93;;
3189;SDS011;1606;51.946;10.558;2023-04-22T09:33:47;6.63;;;2.70;;
3189;SDS011;1606;51.946;10.558;2023-04-22T09:36:20;6.03;;;2.67;;
3189;SDS011;1606;51.946;10.558;2023-04-22T09:38:51;5.77;;;2.37;;
3189;SDS011;1606;51.946;10.558;2023-04-22T09:41:28;5.80;;;2.30;;
3189;SDS011;1606;51.946;10.558;2023-04-22T09:43:56;5.97;;;2.27;;
3189;SDS011;1606;51.946;10.558;2023-04-22T09:46:26;5.97;;;2.30;;
3189;SDS011;1606;51.946;10.558;2023-04-22T09:48:54;5.30;;;2.10;;
3189;SDS011;1606;51.946;10.558;2023-04-22T09:51:23;5.60;;;2.40;;
3189;SDS011;1606;51.946;10.558;2023-04-22T09:53:56;8.37;;;2.30;;
3189;SDS011;1606;51.946;10.558;2023-04-22T09:56:43;6.00;;;2.17;;
3189;SDS011;1606;51.946;10.558;2023-04-22T09:59:14;7.00;;;2.03;;
3189;SDS011;1606;51.946;10.558;2023-04-22T10:01:47;5.60;;;2.07;;
3189;SDS011;1606;51.946;10.558;2023-04-22T10:04:15;6.97;;;2.43;;
3189;SDS011;1606;51.946;10.558;2023-04-22T10:06:46;5.63;;;2.07;;
3189;SDS011;1606;51.946;10.558;2023-04-22T10:09:15;7.03;;;2.50;;
3189;SDS011;1606;51.946;10.558;2023-04-22T10:11:45;5.73;;;2.57;;
3189;SDS011;1606;51.946;10.558;2023-04-22T10:14:14;5.70;;;2.00;;
3189;SDS011;1606;51.946;10.558;2023-04-22T10:16:42;7.30;;;2.10;;
3189;SDS011;1606;51.946;10.558;2023-04-22T10:19:13;5.80;;;2.00;;
3189;SDS011;1606;51.946;10.558;2023-04-22T10:21:44;6.80;;;2.00;;
3189;SDS011;1606;51.946;10.558;2023-04-22T10:24:14;5.63;;;2.50;;
3189;SDS011;1606;51.946;10.558;2023-04-22T10:26:53;5.00;;;1.83;;
3189;SDS011;1606;51.946;10.558;2023-04-22T10:29:23;5.90;;;1.90;;
3189;SDS011;1606;51.946;10.558;2023-04-22T10:31:53;5.60;;;2.17;;
3189;SDS011;1606;51.946;10.558;2023-04-22T10:34:23;5.73;;;2.17;;
3189;SDS011;1606;51.946;10.558;2023-04-22T10:36:52;6.07;;;2.17;;
3189;SDS011;1606;51.946;10.558;2023-04-22T10:39:21;6.37;;;2.20;;
3189;SDS011;1606;51.946;10.558;2023-04-22T10:41:51;5.10;;;1.60;;
3189;SDS011;1606;51.946;10.558;2023-04-22T10:44:20;4.97;;;1.50;;
3189;SDS011;1606;51.946;10.558;2023-04-22T10:46:55;5.97;;;2.20;;
3189;SDS011;1606;51.946;10.558;2023-04-22T10:49:29;5.20;;;1.90;;
3189;SDS011;1606;51.946;10.558;2023-04-22T10:51:58;5.70;;;1.90;;
3189;SDS011;1606;51.946;10.558;2023-04-22T10:57:28;5.80;;;2.60;;
3189;SDS011;1606;51.946;10.558;2023-04-22T11:03:23;6.90;;;2.67;;
3189;SDS011;1606;51.946;10.558;2023-04-22T11:08:42;6.50;;;2.17;;
3189;SDS011;1606;51.946;10.558;2023-04-22T11:11:11;5.20;;;1.80;;
3189;SDS011;1606;51.946;10.558;2023-04-22T11:13:41;5.17;;;1.60;;
3189;SDS011;1606;51.946;10.558;2023-04-22T11:16:09;5.10;;;1.83;;
3189;SDS011;1606;51.946;10.558;2023-04-22T11:18:37;5.83;;;2.00;;
3189;SDS011;1606;51.946;10.558;2023-04-22T11:21:05;5.00;;;1.60;;
3189;SDS011;1606;51.946;10.558;2023-04-22T11:23:34;5.90;;;1.60;;
3189;SDS011;1606;51.946;10.558;2023-04-22T11:26:03;6.40;;;1.90;;
3189;SDS011;1606;51.946;10.558;2023-04-22T11:28:32;6.00;;;2.10;;
3189;SDS011;1606;51.946;10.558;2023-04-22T11:31:02;5.30;;;1.87;;
3189;SDS011;1606;51.946;10.558;2023-04-22T11:33:31;7.23;;;2.20;;
3189;SDS011;1606;51.946;10.558;2023-04-22T11:36:01;5.67;;;2.23;;
3189;SDS011;1606;51.946;10.558;2023-04-22T11:38:28;6.13;;;2.23;;
3189;SDS011;1606;51.946;10.558;2023-04-22T11:40:57;6.10;;;1.90;;
3189;SDS011;1606;51.946;10.558;2023-04-22T11:43:24;6.30;;;2.30;;
3189;SDS011;1606;51.946;10.558;2023-04-22T11:45:54;8.43;;;2.27;;
3189;SDS011;1606;51.946;10.558;2023-04-22T11:48:23;6.23;;;2.20;;
3189;SDS011;1606;51.946;10.558;2023-04-22T11:51:06;6.93;;;2.00;;
3189;SDS011;1606;51.946;10.558;2023-04-22T11:53:35;6.73;;;2.40;;
3189;SDS011;1606;51.946;10.558;2023-04-22T11:56:04;5.63;;;2.07;;
3189;SDS011;1606;51.946;10.558;2023-04-22T11:58:32;6.83;;;1.90;;
3189;SDS011;1606;51.946;10.558;2023-04-22T12:01:04;6.13;;;2.50;;
3189;SDS011;1606;51.946;10.558;2023-04-22T12:03:33;5.40;;;1.93;;
3189;SDS011;1606;51.946;10.558;2023-04-22T12:06:02;6.40;;;2.07;;
3189;SDS011;1606;51.946;10.558;2023-04-22T12:08:31;5.40;;;1.90;;
3189;SDS011;1606;51.946;10.558;2023-04-22T12:11:01;5.90;;;1.67;;
3189;SDS011;1606;51.946;10.558;2023-04-22T12:13:31;6.60;;;2.10;;
3189;SDS011;1606;51.946;10.558;2023-04-22T12:16:02;10.13;;;2.23;;
3189;SDS011;1606;51.946;10.558;2023-04-22T12:18:34;6.13;;;2.03;;
3189;SDS011;1606;51.946;10.558;2023-04-22T12:21:07;6.67;;;2.23;;
3189;SDS011;1606;51.946;10.558;2023-04-22T12:23:39;7.30;;;2.33;;
3189;SDS011;1606;51.946;10.558;2023-04-22T12:26:08;7.20;;;1.77;;
3189;SDS011;1606;51.946;10.558;2023-04-22T12:28:36;6.33;;;2.00;;
3189;SDS011;1606;51.946;10.558;2023-04-22T12:31:04;9.13;;;2.13;;
3189;SDS011;1606;51.946;10.558;2023-04-22T12:33:34;5.83;;;2.20;;
3189;SDS011;1606;51.946;10.558;2023-04-22T12:36:03;6.93;;;2.30;;
3189;SDS011;1606;51.946;10.558;2023-04-22T12:38:31;5.73;;;2.30;;
3189;SDS011;1606;51.946;10.558;2023-04-22T12:41:00;7.70;;;2.20;;
3189;SDS011;1606;51.946;10.558;2023-04-22T12:43:28;6.33;;;2.30;;
3189;SDS011;1606;51.946;10.558;2023-04-22T12:45:57;7.07;;;2.67;;
3189;SDS011;1606;51.946;10.558;2023-04-22T12:48:25;6.83;;;2.80;;
3189;SDS011;1606;51.946;10.558;2023-04-22T12:50:54;7.93;;;3.07;;
3189;SDS011;1606;51.946;10.558;2023-04-22T12:53:23;6.27;;;2.77;;
3189;SDS011;1606;51.946;10.558;2023-04-22T12:55:51;8.00;;;2.80;;
3189;SDS011;1606;51.946;10.558;2023-04-22T12:58:19;6.20;;;2.37;;
3189;SDS011;1606;51.946;10.558;2023-04-22T13:00:47;6.40;;;2.27;;
3189;SDS011;1606;51.946;10.558;2023-04-22T13:03:15;7.00;;;2.47;;
3189;SDS011;1606;51.946;10.558;2023-04-22T13:05:42;8.33;;;2.97;;
3189;SDS011;1606;51.946;10.558;2023-04-22T13:08:12;7.80;;;3.03;;
3189;SDS011;1606;51.946;10.558;2023-04-22T13:10:40;6.37;;;2.50;;
3189;SDS011;1606;51.946;10.558;2023-04-22T13:13:08;6.10;;;3.00;;
3189;SDS011;1606;51.946;10.558;2023-04-22T13:15:44;6.10;;;2.83;;
3189;SDS011;1606;51.946;10.558;2023-04-22T13:18:13;6.63;;;2.73;;
3189;SDS011;1606;51.946;10.558;2023-04-22T13:20:41;6.03;;;2.43;;
3189;SDS011;1606;51.946;10.558;2023-04-22T13:23:09;7.33;;;2.90;;
3189;SDS011;1606;51.946;10.558;2023-04-22T13:25:39;5.83;;;2.50;;
3189;SDS011;1606;51.946;10.558;2023-04-22T13:28:07;5.90;;;2.80;;
3189;SDS011;1606;51.946;10.558;2023-04-22T13:30:36;7.00;;;2.33;;
3189;SDS011;1606;51.946;10.558;2023-04-22T13:33:04;8.53;;;2.80;;
3189;SDS011;1606;51.946;10.558;2023-04-22T13:35:32;7.73;;;2.97;;
3189;SDS011;1606;51.946;10.558;2023-04-22T13:38:00;6.43;;;2.20;;
3189;SDS011;1606;51.946;10.558;2023-04-22T13:40:27;7.13;;;2.73;;
3189;SDS011;1606;51.946;10.558;2023-04-22T13:42:57;6.00;;;2.60;;
3189;SDS011;1606;51.946;10.558;2023-04-22T13:45:25;6.80;;;2.90;;
3189;SDS011;1606;51.946;10.558;2023-04-22T13:47:53;7.00;;;2.90;;
3189;SDS011;1606;51.946;10.558;2023-04-22T13:50:21;7.37;;;3.10;;
3189;SDS011;1606;51.946;10.558;2023-04-22T13:52:49;5.73;;;2.33;;
3189;SDS011;1606;51.946;10.558;2023-04-22T13:55:17;7.60;;;3.40;;
3189;SDS011;1606;51.946;10.558;2023-04-22T13:57:45;5.80;;;2.30;;
3189;SDS011;1606;51.946;10.558;2023-04-22T14:00:14;6.37;;;2.60;;
3189;SDS011;1606;51.946;10.558;2023-04-22T14:02:42;5.90;;;2.50;;
3189;SDS011;1606;51.946;10.558;2023-04-22T14:05:11;5.40;;;2.10;;
3189;SDS011;1606;51.946;10.558;2023-04-22T14:07:38;6.80;;;2.40;;
3189;SDS011;1606;51.946;10.558;2023-04-22T14:10:06;6.13;;;2.43;;
3189;SDS011;1606;51.946;10.558;2023-04-22T14:12:37;6.20;;;3.00;;
3189;SDS011;1606;51.946;10.558;2023-04-22T14:15:05;6.27;;;2.47;;
3189;SDS011;1606;51.946;10.558;2023-04-22T14:17:37;5.53;;;2.50;;
3189;SDS011;1606;51.946;10.558;2023-04-22T14:20:06;7.10;;;2.57;;
3189;SDS011;1606;51.946;10.558;2023-04-22T14:22:35;7.77;;;2.40;;
3189;SDS011;1606;51.946;10.558;2023-04-22T14:25:04;6.17;;;2.40;;
3189;SDS011;1606;51.946;10.558;2023-04-22T14:27:32;5.90;;;2.33;;
3189;SDS011;1606;51.946;10.558;2023-04-22T14:30:00;7.17;;;3.17;;
3189;SDS011;1606;51.946;10.558;2023-04-22T14:32:30;6.33;;;2.27;;
3189;SDS011;1606;51.946;10.558;2023-04-22T14:34:59;5.60;;;2.50;;
3189;SDS011;1606;51.946;10.558;2023-04-22T14:37:27;9.60;;;2.77;;
3189;SDS011;1606;51.946;10.558;2023-04-22T14:39:56;8.70;;;3.40;;
3189;SDS011;1606;51.946;10.558;2023-04-22T14:42:24;7.77;;;2.40;;
3189;SDS011;1606;51.946;10.558;2023-04-22T14:44:52;6.60;;;2.07;;
3189;SDS011;1606;51.946;10.558;2023-04-22T14:47:20;5.60;;;2.40;;
3189;SDS011;1606;51.946;10.558;2023-04-22T14:49:47;6.00;;;2.47;;
3189;SDS011;1606;51.946;10.558;2023-04-22T14:52:17;6.07;;;2.00;;
3189;SDS011;1606;51.946;10.558;2023-04-22T14:54:44;5.50;;;2.07;;
3189;SDS011;1606;51.946;10.558;2023-04-22T14:57:17;5.90;;;2.03;;
3189;SDS011;1606;51.946;10.558;2023-04-22T14:59:44;6.30;;;2.30;;
3189;SDS011;1606;51.946;10.558;2023-04-22T15:02:12;6.00;;;2.10;;
3189;SDS011;1606;51.946;10.558;2023-04-22T15:04:41;5.50;;;2.37;;
3189;SDS011;1606;51.946;10.558;2023-04-22T15:07:09;5.83;;;1.77;;